createdAt,value
2018-08-16T00:00:18.945Z,1010.6
2018-08-16T00:01:20.968Z,1010.5
2018-08-16T00:02:23.005Z,1010.6
2018-08-16T00:03:25.039Z,1010.6
2018-08-16T00:04:27.056Z,1010.5
2018-08-16T00:05:29.401Z,1010.5
2018-08-16T00:06:31.714Z,1010.6
2018-08-16T00:07:33.742Z,1010.6
2018-08-16T00:08:35.774Z,1010.5
2018-08-16T00:09:37.814Z,1010.5
2018-08-16T00:10:39.836Z,1010.6
2018-08-16T00:11:41.868Z,1010.6
2018-08-16T00:12:43.896Z,1010.6
2018-08-16T00:13:45.916Z,1010.6
2018-08-16T00:14:47.942Z,1010.6
2018-08-16T00:15:50.249Z,1010.6
2018-08-16T00:16:52.283Z,1010.6
2018-08-16T00:17:54.314Z,1010.6
2018-08-16T00:18:56.339Z,1010.6
2018-08-16T00:19:58.372Z,1010.6
2018-08-16T00:21:00.389Z,1010.6
2018-08-16T00:22:02.707Z,1010.6
2018-08-16T00:23:04.734Z,1010.5
2018-08-16T00:24:07.078Z,1010.6
2018-08-16T00:25:09.103Z,1010.6
2018-08-16T00:26:11.139Z,1010.6
2018-08-16T00:27:13.472Z,1010.6
2018-08-16T00:28:15.773Z,1010.6
2018-08-16T00:29:17.814Z,1010.6
2018-08-16T00:30:20.505Z,1010.6
2018-08-16T00:31:22.533Z,1010.6
2018-08-16T00:32:24.556Z,1010.6
2018-08-16T00:33:26.593Z,1010.6
2018-08-16T00:34:28.617Z,1010.6
2018-08-16T00:35:30.652Z,1010.6
2018-08-16T00:36:32.686Z,1010.6
2018-08-16T00:37:34.704Z,1010.5
2018-08-16T00:38:36.741Z,1010.5
2018-08-16T00:39:38.771Z,1010.6
2018-08-16T00:40:40.795Z,1010.5
2018-08-16T00:41:42.824Z,1010.5
2018-08-16T00:42:44.858Z,1010.5
2018-08-16T00:43:47.165Z,1010.5
2018-08-16T00:44:49.199Z,1010.5
2018-08-16T00:45:51.614Z,1010.6
2018-08-16T00:46:53.913Z,1010.5
2018-08-16T00:47:55.943Z,1010.5
2018-08-16T00:48:57.975Z,1010.5
2018-08-16T00:50:00.001Z,1010.5
2018-08-16T00:51:02.035Z,1010.5
2018-08-16T00:52:04.072Z,1010.5
2018-08-16T00:53:06.107Z,1010.5
2018-08-16T00:54:08.128Z,1010.5
2018-08-16T00:55:10.165Z,1010.5
2018-08-16T00:56:12.199Z,1010.5
2018-08-16T00:57:14.226Z,1010.5
2018-08-16T00:58:16.248Z,1010.5
2018-08-16T00:59:18.283Z,1010.6
2018-08-16T01:00:20.702Z,1010.5
2018-08-16T01:01:23.111Z,1010.5
2018-08-16T01:02:25.156Z,1010.5
2018-08-16T01:03:27.169Z,1010.5
2018-08-16T01:04:29.199Z,1010.5
2018-08-16T01:05:31.222Z,1010.5
2018-08-16T01:06:33.255Z,1010.5
2018-08-16T01:07:35.280Z,1010.4
2018-08-16T01:08:37.315Z,1010.5
2018-08-16T01:09:39.352Z,1010.5
2018-08-16T01:10:41.367Z,1010.5
2018-08-16T01:11:43.405Z,1010.4
2018-08-16T01:12:45.443Z,1010.4
2018-08-16T01:13:48.023Z,1010.5
2018-08-16T01:14:50.053Z,1010.5
2018-08-16T01:15:52.088Z,1010.5
2018-08-16T01:16:54.108Z,1010.5
2018-08-16T01:17:56.138Z,1010.5
2018-08-16T01:18:58.166Z,1010.5
2018-08-16T01:20:00.190Z,1010.5
2018-08-16T01:21:02.521Z,1010.5
2018-08-16T01:22:04.845Z,1010.5
2018-08-16T01:23:07.255Z,1010.4
2018-08-16T01:24:09.286Z,1010.5
2018-08-16T01:25:11.320Z,1010.5
2018-08-16T01:26:13.629Z,1010.5
2018-08-16T01:27:15.959Z,1010.5
2018-08-16T01:28:17.985Z,1010.5
2018-08-16T01:29:20.015Z,1010.4
2018-08-16T01:30:22.335Z,1010.4
2018-08-16T01:31:24.364Z,1010.5
2018-08-16T01:32:26.398Z,1010.4
2018-08-16T01:33:28.811Z,1010.5
2018-08-16T01:34:30.836Z,1010.5
2018-08-16T01:35:32.896Z,1010.5
2018-08-16T01:36:35.670Z,1010.5
2018-08-16T01:37:37.697Z,1010.5
2018-08-16T01:38:39.722Z,1010.5
2018-08-16T01:39:41.755Z,1010.5
2018-08-16T01:40:43.778Z,1010.5
2018-08-16T01:41:46.103Z,1010.5
2018-08-16T01:42:48.139Z,1010.5
2018-08-16T01:43:50.156Z,1010.5
2018-08-16T01:44:52.477Z,1010.4
2018-08-16T01:45:55.117Z,1010.5
2018-08-16T01:46:57.141Z,1010.4
2018-08-16T01:47:59.457Z,1010.5
2018-08-16T01:49:01.798Z,1010.5
2018-08-16T01:50:03.818Z,1010.4
2018-08-16T01:51:05.854Z,1010.4
2018-08-16T01:52:07.882Z,1010.5
2018-08-16T01:53:09.900Z,1010.5
2018-08-16T01:54:11.929Z,1010.5
2018-08-16T01:55:13.961Z,1010.5
2018-08-16T01:56:15.988Z,1010.5
2018-08-16T01:57:18.022Z,1010.5
2018-08-16T01:58:20.056Z,1010.5
2018-08-16T01:59:22.075Z,1010.5
2018-08-16T02:00:24.120Z,1010.5
2018-08-16T02:01:26.135Z,1010.5
2018-08-16T02:02:28.162Z,1010.5
2018-08-16T02:03:30.183Z,1010.5
2018-08-16T02:04:32.219Z,1010.5
2018-08-16T02:05:34.244Z,1010.5
2018-08-16T02:06:36.549Z,1010.5
2018-08-16T02:07:38.583Z,1010.5
2018-08-16T02:08:40.993Z,1010.5
2018-08-16T02:09:43.027Z,1010.5
2018-08-16T02:10:45.358Z,1010.5
2018-08-16T02:11:47.390Z,1010.5
2018-08-16T02:12:49.414Z,1010.5
2018-08-16T02:13:51.831Z,1010.5
2018-08-16T02:14:53.850Z,1010.5
2018-08-16T02:15:55.874Z,1010.5
2018-08-16T02:16:57.924Z,1010.5
2018-08-16T02:17:59.937Z,1010.5
2018-08-16T02:19:02.246Z,1010.5
2018-08-16T02:20:04.664Z,1010.5
2018-08-16T02:21:06.976Z,1010.5
2018-08-16T02:22:09.386Z,1010.5
2018-08-16T02:23:11.698Z,1010.5
2018-08-16T02:24:13.719Z,1010.5
2018-08-16T02:25:15.746Z,1010.5
2018-08-16T02:26:17.786Z,1010.5
2018-08-16T02:27:19.811Z,1010.5
2018-08-16T02:28:22.119Z,1010.5
2018-08-16T02:29:24.540Z,1010.5
2018-08-16T02:30:26.848Z,1010.5
2018-08-16T02:31:29.260Z,1010.5
2018-08-16T02:32:31.285Z,1010.5
2018-08-16T02:33:33.693Z,1010.5
2018-08-16T02:34:35.720Z,1010.5
2018-08-16T02:35:38.039Z,1010.5
2018-08-16T02:36:40.379Z,1010.5
2018-08-16T02:37:42.405Z,1010.5
2018-08-16T02:38:44.712Z,1010.5
2018-08-16T02:39:46.736Z,1010.5
2018-08-16T02:40:48.759Z,1010.5
2018-08-16T02:41:50.795Z,1010.5
2018-08-16T02:42:52.814Z,1010.5
2018-08-16T02:43:54.841Z,1010.5
2018-08-16T02:44:56.864Z,1010.5
2018-08-16T02:45:58.896Z,1010.5
2018-08-16T02:47:00.915Z,1010.5
2018-08-16T02:48:02.939Z,1010.5
2018-08-16T02:49:04.958Z,1010.5
2018-08-16T02:50:07.276Z,1010.5
2018-08-16T02:51:09.297Z,1010.4
2018-08-16T02:52:11.600Z,1010.4
2018-08-16T02:53:13.633Z,1010.4
2018-08-16T02:54:15.659Z,1010.4
2018-08-16T02:55:17.682Z,1010.4
2018-08-16T02:56:19.714Z,1010.4
2018-08-16T02:57:21.736Z,1010.4
2018-08-16T02:58:24.071Z,1010.4
2018-08-16T02:59:26.108Z,1010.4
2018-08-16T03:00:28.137Z,1010.4
2018-08-16T03:01:30.157Z,1010.4
2018-08-16T03:02:32.472Z,1010.4
2018-08-16T03:03:34.490Z,1010.4
2018-08-16T03:04:36.515Z,1010.4
2018-08-16T03:05:38.547Z,1010.3
2018-08-16T03:06:40.566Z,1010.3
2018-08-16T03:07:42.907Z,1010.3
2018-08-16T03:08:44.936Z,1010.3
2018-08-16T03:09:46.969Z,1010.3
2018-08-16T03:10:48.992Z,1010.3
2018-08-16T03:11:51.021Z,1010.3
2018-08-16T03:12:53.047Z,1010.3
2018-08-16T03:13:55.068Z,1010.3
2018-08-16T03:14:57.104Z,1010.3
2018-08-16T03:15:59.417Z,1010.4
2018-08-16T03:17:01.730Z,1010.3
2018-08-16T03:18:03.754Z,1010.3
2018-08-16T03:19:06.068Z,1010.3
2018-08-16T03:20:08.090Z,1010.3
2018-08-16T03:21:10.408Z,1010.3
2018-08-16T03:22:12.440Z,1010.3
2018-08-16T03:23:14.456Z,1010.3
2018-08-16T03:24:16.491Z,1010.3
2018-08-16T03:25:18.900Z,1010.3
2018-08-16T03:26:20.931Z,1010.3
2018-08-16T03:27:23.350Z,1010.3
2018-08-16T03:28:25.370Z,1010.3
2018-08-16T03:29:27.403Z,1010.3
2018-08-16T03:30:29.808Z,1010.3
2018-08-16T03:31:31.832Z,1010.3
2018-08-16T03:32:34.150Z,1010.3
2018-08-16T03:33:36.878Z,1010.3
2018-08-16T03:34:38.891Z,1010.3
2018-08-16T03:35:40.921Z,1010.3
2018-08-16T03:36:43.329Z,1010.3
2018-08-16T03:37:45.348Z,1010.3
2018-08-16T03:38:47.690Z,1010.3
2018-08-16T03:39:49.705Z,1010.3
2018-08-16T03:40:51.735Z,1010.3
2018-08-16T03:41:54.148Z,1010.3
2018-08-16T03:42:56.181Z,1010.3
2018-08-16T03:43:58.199Z,1010.3
2018-08-16T03:45:00.233Z,1010.3
2018-08-16T03:46:02.262Z,1010.3
2018-08-16T03:47:04.282Z,1010.2
2018-08-16T03:48:06.765Z,1010.2
2018-08-16T03:49:08.725Z,1010.2
2018-08-16T03:50:10.751Z,1010.2
2018-08-16T03:51:12.773Z,1010.3
2018-08-16T03:52:14.801Z,1010.2
2018-08-16T03:53:16.826Z,1010.2
2018-08-16T03:54:18.853Z,1010.2
2018-08-16T03:55:20.886Z,1010.2
2018-08-16T03:56:22.904Z,1010.2
2018-08-16T03:57:25.244Z,1010.2
2018-08-16T03:58:27.272Z,1010.2
2018-08-16T03:59:29.289Z,1010.2
2018-08-16T04:00:31.314Z,1010.2
2018-08-16T04:01:33.347Z,1010.1
2018-08-16T04:02:35.372Z,1010.2
2018-08-16T04:03:37.392Z,1010.2
2018-08-16T04:04:39.418Z,1010.2
2018-08-16T04:05:42.045Z,1010.2
2018-08-16T04:06:44.072Z,1010.2
2018-08-16T04:07:46.088Z,1010.2
2018-08-16T04:08:48.122Z,1010.2
2018-08-16T04:09:50.430Z,1010.2
2018-08-16T04:10:52.752Z,1010.2
2018-08-16T04:11:54.777Z,1010.2
2018-08-16T04:12:56.792Z,1010.2
2018-08-16T04:13:58.823Z,1010.2
2018-08-16T04:15:01.237Z,1010.2
2018-08-16T04:16:03.553Z,1010.2
2018-08-16T04:17:05.575Z,1010.2
2018-08-16T04:18:07.912Z,1010.2
2018-08-16T04:19:09.939Z,1010.2
2018-08-16T04:20:11.962Z,1010.2
2018-08-16T04:21:14.279Z,1010.2
2018-08-16T04:22:16.681Z,1010.2
2018-08-16T04:23:19.091Z,1010.2
2018-08-16T04:24:21.495Z,1010.3
2018-08-16T04:25:23.525Z,1010.2
2018-08-16T04:26:25.544Z,1010.2
2018-08-16T04:27:27.577Z,1010.2
2018-08-16T04:28:29.896Z,1010.3
2018-08-16T04:29:31.912Z,1010.3
2018-08-16T04:30:33.958Z,1010.2
2018-08-16T04:31:35.978Z,1010.3
2018-08-16T04:32:38.002Z,1010.2
2018-08-16T04:33:40.312Z,1010.3
2018-08-16T04:34:42.764Z,1010.3
2018-08-16T04:35:44.753Z,1010.3
2018-08-16T04:36:46.782Z,1010.3
2018-08-16T04:37:49.090Z,1010.2
2018-08-16T04:38:51.106Z,1010.2
2018-08-16T04:39:53.132Z,1010.2
2018-08-16T04:40:55.166Z,1010.2
2018-08-16T04:41:57.198Z,1010.2
2018-08-16T04:43:00.003Z,1010.3
2018-08-16T04:44:02.044Z,1010.2
2018-08-16T04:45:04.348Z,1010.3
2018-08-16T04:46:06.384Z,1010.3
2018-08-16T04:47:08.792Z,1010.3
2018-08-16T04:48:11.219Z,1010.2
2018-08-16T04:49:13.606Z,1010.3
2018-08-16T04:50:15.639Z,1010.3
2018-08-16T04:51:17.660Z,1010.3
2018-08-16T04:52:19.978Z,1010.2
2018-08-16T04:53:22.395Z,1010.2
2018-08-16T04:54:24.411Z,1010.3
2018-08-16T04:55:26.449Z,1010.3
2018-08-16T04:56:28.475Z,1010.2
2018-08-16T04:57:30.510Z,1010.2
2018-08-16T04:58:32.528Z,1010.3
2018-08-16T04:59:34.558Z,1010.3
2018-08-16T05:00:36.579Z,1010.3
2018-08-16T05:01:38.600Z,1010.3
2018-08-16T05:02:41.021Z,1010.3
2018-08-16T05:03:43.036Z,1010.3
2018-08-16T05:04:45.340Z,1010.3
2018-08-16T05:05:47.372Z,1010.3
2018-08-16T05:06:49.400Z,1010.3
2018-08-16T05:07:51.727Z,1010.2
2018-08-16T05:08:54.035Z,1010.3
2018-08-16T05:09:56.060Z,1010.3
2018-08-16T05:10:58.099Z,1010.3
2018-08-16T05:12:00.122Z,1010.3
2018-08-16T05:13:02.146Z,1010.3
2018-08-16T05:14:04.167Z,1010.3
2018-08-16T05:15:06.208Z,1010.3
2018-08-16T05:16:08.224Z,1010.3
2018-08-16T05:17:10.670Z,1010.3
2018-08-16T05:18:12.650Z,1010.3
2018-08-16T05:19:14.686Z,1010.3
2018-08-16T05:20:16.706Z,1010.3
2018-08-16T05:21:18.730Z,1010.3
2018-08-16T05:22:21.032Z,1010.3
2018-08-16T05:23:23.061Z,1010.3
2018-08-16T05:24:25.391Z,1010.3
2018-08-16T05:25:27.415Z,1010.3
2018-08-16T05:26:29.748Z,1010.3
2018-08-16T05:27:31.762Z,1010.3
2018-08-16T05:28:33.798Z,1010.3
2018-08-16T05:29:35.825Z,1010.3
2018-08-16T05:30:37.856Z,1010.3
2018-08-16T05:31:39.944Z,1010.3
2018-08-16T05:32:42.753Z,1010.3
2018-08-16T05:33:44.777Z,1010.3
2018-08-16T05:34:46.799Z,1010.3
2018-08-16T05:35:49.140Z,1010.2
2018-08-16T05:36:51.439Z,1010.2
2018-08-16T05:37:53.464Z,1010.3
2018-08-16T05:38:55.494Z,1010.3
2018-08-16T05:39:57.523Z,1010.2
2018-08-16T05:40:59.544Z,1010.2
2018-08-16T05:42:01.961Z,1010.2
2018-08-16T05:43:04.093Z,1010.2
2018-08-16T05:44:06.421Z,1010.2
2018-08-16T05:45:08.463Z,1010.2
2018-08-16T05:46:10.771Z,1010.2
2018-08-16T05:47:13.080Z,1010.2
2018-08-16T05:48:15.113Z,1010.2
2018-08-16T05:49:17.135Z,1010.3
2018-08-16T05:50:19.439Z,1010.3
2018-08-16T05:51:21.472Z,1010.2
2018-08-16T05:52:23.597Z,1010.2
2018-08-16T05:53:26.026Z,1010.2
2018-08-16T05:54:28.438Z,1010.2
2018-08-16T05:55:30.777Z,1010.2
2018-08-16T05:56:32.794Z,1010.2
2018-08-16T05:57:34.830Z,1010.2
2018-08-16T05:58:36.856Z,1010.2
2018-08-16T05:59:38.877Z,1010.3
2018-08-16T06:00:40.914Z,1010.3
2018-08-16T06:01:42.929Z,1010.3
2018-08-16T06:02:44.956Z,1010.3
2018-08-16T06:03:47.647Z,1010.2
2018-08-16T06:04:50.066Z,1010.3
2018-08-16T06:05:52.147Z,1010.3
2018-08-16T06:06:54.125Z,1010.2
2018-08-16T06:07:56.163Z,1010.3
2018-08-16T06:08:58.180Z,1010.3
2018-08-16T06:10:00.611Z,1010.3
2018-08-16T06:11:02.950Z,1010.3
2018-08-16T06:12:04.971Z,1010.3
2018-08-16T06:13:06.999Z,1010.3
2018-08-16T06:14:09.036Z,1010.3
2018-08-16T06:15:11.058Z,1010.3
2018-08-16T06:16:26.132Z,1010.3
2018-08-16T06:17:28.162Z,1010.3
2018-08-16T06:18:30.184Z,1010.3
2018-08-16T06:19:32.782Z,1010.3
2018-08-16T06:20:34.819Z,1010.3
2018-08-16T06:21:36.843Z,1010.3
2018-08-16T06:22:39.262Z,1010.3
2018-08-16T06:23:41.295Z,1010.2
2018-08-16T06:24:43.634Z,1010.2
2018-08-16T06:25:45.650Z,1010.2
2018-08-16T06:26:47.675Z,1010.2
2018-08-16T06:27:49.988Z,1010.2
2018-08-16T06:28:52.298Z,1010.2
2018-08-16T06:29:54.330Z,1010.1
2018-08-16T06:30:56.363Z,1010.1
2018-08-16T06:31:58.675Z,1010.2
2018-08-16T06:33:01.015Z,1010.1
2018-08-16T06:34:03.051Z,1010.1
2018-08-16T06:35:05.066Z,1010.2
2018-08-16T06:36:07.096Z,1010.2
2018-08-16T06:37:09.119Z,1010.1
2018-08-16T06:38:11.154Z,1010.1
2018-08-16T06:39:13.181Z,1010.1
2018-08-16T06:40:15.214Z,1010.1
2018-08-16T06:41:17.248Z,1010.1
2018-08-16T06:42:19.567Z,1010.1
2018-08-16T06:43:21.610Z,1010.1
2018-08-16T06:44:23.933Z,1010.1
2018-08-16T06:45:26.508Z,1010.1
2018-08-16T06:46:28.539Z,1010.1
2018-08-16T06:47:30.575Z,1010
2018-08-16T06:48:32.600Z,1010.1
2018-08-16T06:49:34.635Z,1010.1
2018-08-16T06:50:36.667Z,1010
2018-08-16T06:51:38.686Z,1010.1
2018-08-16T06:52:40.793Z,1010
2018-08-16T06:53:43.196Z,1010
2018-08-16T06:54:45.219Z,1010
2018-08-16T06:55:47.257Z,1010
2018-08-16T06:56:49.293Z,1010
2018-08-16T06:57:51.316Z,1010
2018-08-16T06:58:53.356Z,1010
2018-08-16T06:59:55.664Z,1009.9
2018-08-16T07:00:57.697Z,1010
2018-08-16T07:01:59.722Z,1010
2018-08-16T07:03:01.759Z,1009.9
2018-08-16T07:04:04.072Z,1009.9
2018-08-16T07:05:06.102Z,1009.9
2018-08-16T07:06:08.524Z,1009.9
2018-08-16T07:07:10.550Z,1009.9
2018-08-16T07:08:12.872Z,1009.8
2018-08-16T07:09:15.290Z,1009.8
2018-08-16T07:10:17.326Z,1009.8
2018-08-16T07:11:19.352Z,1009.8
2018-08-16T07:12:21.924Z,1009.8
2018-08-16T07:13:23.801Z,1009.8
2018-08-16T07:14:25.829Z,1009.8
2018-08-16T07:15:27.881Z,1009.8
2018-08-16T07:16:30.762Z,1009.8
2018-08-16T07:17:32.790Z,1009.8
2018-08-16T07:18:35.195Z,1009.8
2018-08-16T07:19:41.869Z,1009.8
2018-08-16T07:20:44.728Z,1009.8
2018-08-16T07:21:46.764Z,1009.8
2018-08-16T07:22:48.788Z,1009.8
2018-08-16T07:23:51.211Z,1009.8
2018-08-16T07:24:53.373Z,1009.8
2018-08-16T07:25:55.281Z,1009.8
2018-08-16T07:26:57.592Z,1009.8
2018-08-16T07:27:59.630Z,1009.8
2018-08-16T07:29:01.654Z,1009.8
2018-08-16T07:30:04.196Z,1009.8
2018-08-16T07:31:06.134Z,1009.8
2018-08-16T07:32:08.156Z,1009.8
2018-08-16T07:33:10.195Z,1009.8
2018-08-16T07:34:12.228Z,1009.8
2018-08-16T07:35:14.266Z,1009.8
2018-08-16T07:36:16.292Z,1009.8
2018-08-16T07:37:18.329Z,1009.7
2018-08-16T07:38:20.361Z,1009.8
2018-08-16T07:39:22.387Z,1009.8
2018-08-16T07:40:24.431Z,1009.8
2018-08-16T07:41:26.451Z,1009.8
2018-08-16T07:42:28.486Z,1009.7
2018-08-16T07:43:30.804Z,1009.8
2018-08-16T07:44:32.844Z,1009.8
2018-08-16T07:45:34.974Z,1009.7
2018-08-16T07:46:37.272Z,1009.7
2018-08-16T07:47:39.312Z,1009.7
2018-08-16T07:48:41.340Z,1009.8
2018-08-16T07:49:43.427Z,1009.8
2018-08-16T07:50:45.403Z,1009.8
2018-08-16T07:51:47.497Z,1009.7
2018-08-16T07:52:49.472Z,1009.7
2018-08-16T07:53:51.890Z,1009.7
2018-08-16T07:54:53.925Z,1009.7
2018-08-16T07:55:55.951Z,1009.7
2018-08-16T07:56:58.320Z,1009.7
2018-08-16T07:58:00.649Z,1009.7
2018-08-16T07:59:02.979Z,1009.7
2018-08-16T08:00:05.020Z,1009.7
2018-08-16T08:01:07.074Z,1009.6
2018-08-16T08:02:09.386Z,1009.6
2018-08-16T08:03:11.697Z,1009.6
2018-08-16T08:04:13.746Z,1009.7
2018-08-16T08:05:15.761Z,1009.7
2018-08-16T08:06:17.799Z,1009.7
2018-08-16T08:07:19.832Z,1009.7
2018-08-16T08:08:21.887Z,1009.6
2018-08-16T08:09:24.312Z,1009.6
2018-08-16T08:10:26.758Z,1009.6
2018-08-16T08:11:28.796Z,1009.7
2018-08-16T08:12:31.129Z,1009.7
2018-08-16T08:13:33.553Z,1009.6
2018-08-16T08:14:35.961Z,1009.6
2018-08-16T08:15:38.011Z,1009.6
2018-08-16T08:16:40.884Z,1009.6
2018-08-16T08:17:44.005Z,1009.7
2018-08-16T08:18:46.327Z,1009.7
2018-08-16T08:19:48.467Z,1009.6
2018-08-16T08:20:50.971Z,1009.6
2018-08-16T08:21:53.057Z,1009.6
2018-08-16T08:22:55.718Z,1009.6
2018-08-16T08:23:57.795Z,1009.7
2018-08-16T08:25:01.565Z,1009.6
2018-08-16T08:26:03.599Z,1009.6
2018-08-16T08:27:05.638Z,1009.6
2018-08-16T08:28:07.672Z,1009.6
2018-08-16T08:29:09.703Z,1009.6
2018-08-16T08:30:11.739Z,1009.6
2018-08-16T08:31:13.791Z,1009.6
2018-08-16T08:32:15.839Z,1009.7
2018-08-16T08:33:17.867Z,1009.6
2018-08-16T08:34:19.906Z,1009.6
2018-08-16T08:35:21.937Z,1009.6
2018-08-16T08:36:24.351Z,1009.6
2018-08-16T08:37:26.700Z,1009.6
2018-08-16T08:38:28.774Z,1009.5
2018-08-16T08:39:31.511Z,1009.5
2018-08-16T08:40:33.551Z,1009.5
2018-08-16T08:41:35.590Z,1009.6
2018-08-16T08:42:37.622Z,1009.5
2018-08-16T08:43:39.663Z,1009.5
2018-08-16T08:44:42.088Z,1009.5
2018-08-16T08:45:44.116Z,1009.5
2018-08-16T08:46:46.546Z,1009.5
2018-08-16T08:47:48.573Z,1009.4
2018-08-16T08:48:50.608Z,1009.5
2018-08-16T08:49:52.938Z,1009.4
2018-08-16T08:50:54.979Z,1009.5
2018-08-16T08:51:57.008Z,1009.4
2018-08-16T08:52:59.048Z,1009.5
2018-08-16T08:54:01.369Z,1009.5
2018-08-16T08:55:03.397Z,1009.4
2018-08-16T08:56:05.435Z,1009.4
2018-08-16T08:57:07.755Z,1009.5
2018-08-16T08:58:10.076Z,1009.4
2018-08-16T08:59:12.133Z,1009.4
2018-08-16T09:00:14.547Z,1009.4
2018-08-16T09:01:16.859Z,1009.4
2018-08-16T09:02:18.900Z,1009.4
2018-08-16T09:03:21.618Z,1009.4
2018-08-16T09:04:23.647Z,1009.4
2018-08-16T09:05:25.685Z,1009.4
2018-08-16T09:06:27.716Z,1009.4
2018-08-16T09:07:29.756Z,1009.4
2018-08-16T09:08:32.083Z,1009.4
2018-08-16T09:09:34.114Z,1009.4
2018-08-16T09:10:36.157Z,1009.4
2018-08-16T09:11:38.183Z,1009.3
2018-08-16T09:12:40.227Z,1009.3
2018-08-16T09:13:42.297Z,1009.3
2018-08-16T09:14:44.321Z,1009.4
2018-08-16T09:15:46.347Z,1009.2
2018-08-16T09:16:48.383Z,1009.2
2018-08-16T09:17:50.421Z,1009.4
2018-08-16T09:18:52.455Z,1009.2
2018-08-16T09:19:54.506Z,1009.3
2018-08-16T09:20:56.532Z,1009.3
2018-08-16T09:21:58.569Z,1009.2
2018-08-16T09:23:00.600Z,1009.2
2018-08-16T09:24:02.683Z,1009.2
2018-08-16T09:25:04.679Z,1009.2
2018-08-16T09:26:07.013Z,1009.1
2018-08-16T09:27:09.058Z,1009.2
2018-08-16T09:28:11.086Z,1009.2
2018-08-16T09:29:13.137Z,1009.1
2018-08-16T09:30:15.177Z,1009.2
2018-08-16T09:31:17.308Z,1009.2
2018-08-16T09:32:20.514Z,1009.1
2018-08-16T09:33:22.846Z,1009.2
2018-08-16T09:34:24.879Z,1009.2
2018-08-16T09:35:27.236Z,1009.1
2018-08-16T09:36:29.277Z,1009.1
2018-08-16T09:37:31.305Z,1009.1
2018-08-16T09:38:33.346Z,1009.1
2018-08-16T09:39:35.591Z,1009.1
2018-08-16T09:40:37.965Z,1009
2018-08-16T09:41:40.009Z,1009
2018-08-16T09:42:42.061Z,1009.1
2018-08-16T09:43:44.373Z,1009
2018-08-16T09:44:46.424Z,1009.1
2018-08-16T09:45:48.765Z,1009.1
2018-08-16T09:46:50.811Z,1009
2018-08-16T09:47:52.850Z,1009
2018-08-16T09:48:55.282Z,1009
2018-08-16T09:49:57.600Z,1009
2018-08-16T09:50:59.647Z,1008.9
2018-08-16T09:52:01.990Z,1008.9
2018-08-16T09:53:04.025Z,1008.9
2018-08-16T09:54:06.078Z,1008.9
2018-08-16T09:55:08.119Z,1008.9
2018-08-16T09:56:10.168Z,1008.9
2018-08-16T09:57:12.203Z,1008.9
2018-08-16T09:58:14.251Z,1008.9
2018-08-16T09:59:16.286Z,1008.9
2018-08-16T10:00:18.612Z,1008.9
2018-08-16T10:01:20.662Z,1008.8
2018-08-16T10:02:22.702Z,1008.9
2018-08-16T10:03:24.732Z,1008.8
2018-08-16T10:04:26.778Z,1008.8
2018-08-16T10:05:28.819Z,1008.9
2018-08-16T10:06:30.854Z,1008.8
2018-08-16T10:07:33.283Z,1008.8
2018-08-16T10:08:35.320Z,1008.8
2018-08-16T10:09:37.940Z,1008.8
2018-08-16T10:10:40.381Z,1008.8
2018-08-16T10:11:42.706Z,1008.8
2018-08-16T10:12:44.743Z,1008.7
2018-08-16T10:13:46.791Z,1008.7
2018-08-16T10:14:48.872Z,1008.7
2018-08-16T10:15:50.861Z,1008.7
2018-08-16T10:16:52.918Z,1008.7
2018-08-16T10:17:55.263Z,1008.6
2018-08-16T10:18:57.310Z,1008.6
2018-08-16T10:19:59.353Z,1008.6
2018-08-16T10:21:01.400Z,1008.7
2018-08-16T10:22:03.439Z,1008.6
2018-08-16T10:23:05.472Z,1008.6
2018-08-16T10:24:07.512Z,1008.6
2018-08-16T10:25:09.559Z,1008.6
2018-08-16T10:26:11.586Z,1008.6
2018-08-16T10:27:14.025Z,1008.6
2018-08-16T10:28:16.024Z,1008.5
2018-08-16T10:29:18.355Z,1008.6
2018-08-16T10:30:20.392Z,1008.6
2018-08-16T10:31:22.439Z,1008.5
2018-08-16T10:32:24.487Z,1008.6
2018-08-16T10:33:26.522Z,1008.6
2018-08-16T10:34:28.578Z,1008.6
2018-08-16T10:35:30.612Z,1008.6
2018-08-16T10:36:32.657Z,1008.6
2018-08-16T10:37:34.702Z,1008.5
2018-08-16T10:38:36.743Z,1008.5
2018-08-16T10:39:38.781Z,1008.4
2018-08-16T10:40:40.826Z,1008.4
2018-08-16T10:41:42.864Z,1008.4
2018-08-16T10:42:44.911Z,1008.5
2018-08-16T10:43:46.970Z,1008.5
2018-08-16T10:44:49.702Z,1008.4
2018-08-16T10:45:51.737Z,1008.5
2018-08-16T10:46:53.786Z,1008.5
2018-08-16T10:47:55.825Z,1008.4
2018-08-16T10:48:57.862Z,1008.5
2018-08-16T10:50:00.222Z,1008.3
2018-08-16T10:51:02.254Z,1008.5
2018-08-16T10:52:04.305Z,1008.4
2018-08-16T10:53:06.349Z,1008.4
2018-08-16T10:54:08.679Z,1008.4
2018-08-16T10:55:10.714Z,1008.4
2018-08-16T10:56:12.769Z,1008.4
2018-08-16T10:57:15.088Z,1008.4
2018-08-16T10:58:17.407Z,1008.4
2018-08-16T10:59:19.449Z,1008.4
2018-08-16T11:00:21.504Z,1008.4
2018-08-16T11:01:24.073Z,1008.5
2018-08-16T11:02:26.021Z,1008.4
2018-08-16T11:03:28.058Z,1008.5
2018-08-16T11:04:30.108Z,1008.4
2018-08-16T11:05:32.153Z,1008.4
2018-08-16T11:06:34.196Z,1008.4
2018-08-16T11:07:36.708Z,1008.3
2018-08-16T11:08:39.064Z,1008.4
2018-08-16T11:09:41.104Z,1008.3
2018-08-16T11:10:43.152Z,1008.3
2018-08-16T11:11:45.195Z,1008.4
2018-08-16T11:12:47.232Z,1008.3
2018-08-16T11:13:49.281Z,1008.2
2018-08-16T11:14:51.601Z,1008.3
2018-08-16T11:15:53.649Z,1008.3
2018-08-16T11:16:55.707Z,1008.3
2018-08-16T11:17:57.753Z,1008.3
2018-08-16T11:18:59.921Z,1008.2
2018-08-16T11:20:02.442Z,1008.3
2018-08-16T11:21:04.795Z,1008.1
2018-08-16T11:22:07.116Z,1008.3
2018-08-16T11:23:09.167Z,1008.2
2018-08-16T11:24:11.208Z,1008.2
2018-08-16T11:25:13.263Z,1008.2
2018-08-16T11:26:15.609Z,1008.2
2018-08-16T11:27:17.971Z,1008.2
2018-08-16T11:28:20.009Z,1008.2
2018-08-16T11:29:22.066Z,1008.2
2018-08-16T11:30:24.106Z,1008.2
2018-08-16T11:31:26.147Z,1008.2
2018-08-16T11:32:28.202Z,1008.1
2018-08-16T11:33:30.238Z,1008.1
2018-08-16T11:34:32.282Z,1008.1
2018-08-16T11:35:34.996Z,1008.2
2018-08-16T11:36:37.045Z,1008.1
2018-08-16T11:37:39.098Z,1008
2018-08-16T11:38:41.420Z,1008.1
2018-08-16T11:39:43.470Z,1008.1
2018-08-16T11:40:45.644Z,1008
2018-08-16T11:41:47.567Z,1008
2018-08-16T11:42:49.612Z,1008.1
2018-08-16T11:43:51.661Z,1008.1
2018-08-16T11:44:53.706Z,1008
2018-08-16T11:45:55.748Z,1008
2018-08-16T11:46:58.189Z,1008
2018-08-16T11:48:00.229Z,1008
2018-08-16T11:49:02.661Z,1007.9
2018-08-16T11:50:04.712Z,1008
2018-08-16T11:51:07.120Z,1008
2018-08-16T11:52:09.550Z,1008
2018-08-16T11:53:11.601Z,1008
2018-08-16T11:54:13.925Z,1007.9
2018-08-16T11:55:15.963Z,1008
2018-08-16T11:56:18.016Z,1008
2018-08-16T11:57:20.049Z,1007.9
2018-08-16T11:58:22.097Z,1007.9
2018-08-16T11:59:24.144Z,1007.9
2018-08-16T12:00:26.857Z,1007.9
2018-08-16T12:01:29.202Z,1007.9
2018-08-16T12:02:31.255Z,1007.9
2018-08-16T12:03:33.301Z,1008
2018-08-16T12:04:35.343Z,1007.8
2018-08-16T12:05:37.403Z,1007.8
2018-08-16T12:06:39.722Z,1007.8
2018-08-16T12:07:41.765Z,1007.8
2018-08-16T12:08:43.817Z,1007.8
2018-08-16T12:09:45.853Z,1007.8
2018-08-16T12:10:48.181Z,1007.8
2018-08-16T12:11:50.234Z,1007.8
2018-08-16T12:12:52.283Z,1007.8
2018-08-16T12:13:54.318Z,1007.8
2018-08-16T12:14:56.401Z,1007.8
2018-08-16T12:15:58.439Z,1007.8
2018-08-16T12:17:00.484Z,1007.7
2018-08-16T12:18:02.814Z,1007.8
2018-08-16T12:19:04.861Z,1007.7
2018-08-16T12:20:06.906Z,1007.7
2018-08-16T12:21:09.023Z,1007.8
2018-08-16T12:22:10.996Z,1007.7
2018-08-16T12:23:13.030Z,1007.7
2018-08-16T12:24:15.081Z,1007.7
2018-08-16T12:25:17.122Z,1007.7
2018-08-16T12:26:19.449Z,1007.6
2018-08-16T12:27:21.775Z,1007.7
2018-08-16T12:28:23.826Z,1007.7
2018-08-16T12:29:25.868Z,1007.6
2018-08-16T12:30:27.919Z,1007.6
2018-08-16T12:31:29.960Z,1007.5
2018-08-16T12:32:32.322Z,1007.5
2018-08-16T12:33:34.363Z,1007.5
2018-08-16T12:34:36.416Z,1007.5
2018-08-16T12:35:38.742Z,1007.6
2018-08-16T12:36:40.788Z,1007.5
2018-08-16T12:37:42.867Z,1007.5
2018-08-16T12:38:45.257Z,1007.5
2018-08-16T12:39:47.693Z,1007.5
2018-08-16T12:40:50.200Z,1007.5
2018-08-16T12:41:52.482Z,1007.4
2018-08-16T12:42:55.371Z,1007.5
2018-08-16T12:43:57.709Z,1007.4
2018-08-16T12:44:59.847Z,1007.5
2018-08-16T12:46:01.883Z,1007.4
2018-08-16T12:47:04.320Z,1007.4
2018-08-16T12:48:06.356Z,1007.3
2018-08-16T12:49:08.784Z,1007.4
2018-08-16T12:50:10.839Z,1007.5
2018-08-16T12:51:12.879Z,1007.3
2018-08-16T12:52:14.918Z,1007.4
2018-08-16T12:53:16.963Z,1007.3
2018-08-16T12:54:19.017Z,1007.3
2018-08-16T12:55:21.343Z,1007.3
2018-08-16T12:56:23.377Z,1007.2
2018-08-16T12:57:25.429Z,1007.3